sensor_id;sensor_type;location;lat;lon;timestamp;P1;durP1;ratioP1;P2;durP2;ratioP2
63259;SDS011;49390;51.380;0.098;2022-12-29T00:02:17;22.23;;;3.97;;
63259;SDS011;49390;51.380;0.098;2022-12-29T00:04:46;18.20;;;3.53;;
63259;SDS011;49390;51.380;0.098;2022-12-29T00:07:17;19.30;;;3.83;;
63259;SDS011;49390;51.380;0.098;2022-12-29T00:09:45;18.48;;;3.78;;
63259;SDS011;49390;51.380;0.098;2022-12-29T00:12:13;15.43;;;3.13;;
63259;SDS011;49390;51.380;0.098;2022-12-29T00:14:42;13.05;;;3.10;;
63259;SDS011;49390;51.380;0.098;2022-12-29T00:17:29;13.32;;;2.60;;
63259;SDS011;49390;51.380;0.098;2022-12-29T00:19:57;17.48;;;3.13;;
63259;SDS011;49390;51.380;0.098;2022-12-29T00:22:44;14.80;;;2.88;;
63259;SDS011;49390;51.380;0.098;2022-12-29T00:25:31;13.35;;;2.40;;
63259;SDS011;49390;51.380;0.098;2022-12-29T00:28:20;12.07;;;2.97;;
63259;SDS011;49390;51.380;0.098;2022-12-29T00:31:07;11.15;;;3.05;;
63259;SDS011;49390;51.380;0.098;2022-12-29T00:33:58;10.82;;;3.30;;
63259;SDS011;49390;51.380;0.098;2022-12-29T00:36:45;12.90;;;3.10;;
63259;SDS011;49390;51.380;0.098;2022-12-29T00:39:16;14.38;;;2.80;;
63259;SDS011;49390;51.380;0.098;2022-12-29T00:42:17;17.85;;;2.80;;
63259;SDS011;49390;51.380;0.098;2022-12-29T00:45:04;11.57;;;2.58;;
63259;SDS011;49390;51.380;0.098;2022-12-29T00:47:33;21.70;;;4.13;;
63259;SDS011;49390;51.380;0.098;2022-12-29T00:50:01;14.07;;;2.58;;
63259;SDS011;49390;51.380;0.098;2022-12-29T00:52:30;15.18;;;3.10;;
63259;SDS011;49390;51.380;0.098;2022-12-29T00:54:58;14.52;;;3.28;;
63259;SDS011;49390;51.380;0.098;2022-12-29T00:57:26;21.40;;;4.05;;
63259;SDS011;49390;51.380;0.098;2022-12-29T00:59:54;15.35;;;3.17;;
63259;SDS011;49390;51.380;0.098;2022-12-29T01:02:23;11.63;;;3.20;;
63259;SDS011;49390;51.380;0.098;2022-12-29T01:04:51;17.92;;;3.22;;
63259;SDS011;49390;51.380;0.098;2022-12-29T01:07:22;15.35;;;2.97;;
63259;SDS011;49390;51.380;0.098;2022-12-29T01:09:50;19.38;;;3.40;;
63259;SDS011;49390;51.380;0.098;2022-12-29T01:12:36;22.10;;;3.72;;
63259;SDS011;49390;51.380;0.098;2022-12-29T01:15:12;15.90;;;3.75;;
63259;SDS011;49390;51.380;0.098;2022-12-29T01:17:42;16.05;;;3.45;;
63259;SDS011;49390;51.380;0.098;2022-12-29T01:20:10;19.30;;;3.63;;
63259;SDS011;49390;51.380;0.098;2022-12-29T01:22:40;24.13;;;4.53;;
63259;SDS011;49390;51.380;0.098;2022-12-29T01:25:09;15.13;;;2.90;;
63259;SDS011;49390;51.380;0.098;2022-12-29T01:27:39;14.70;;;2.97;;
63259;SDS011;49390;51.380;0.098;2022-12-29T01:30:07;22.67;;;4.53;;
63259;SDS011;49390;51.380;0.098;2022-12-29T01:32:36;17.13;;;3.53;;
63259;SDS011;49390;51.380;0.098;2022-12-29T01:35:04;18.27;;;3.80;;
63259;SDS011;49390;51.380;0.098;2022-12-29T01:37:34;23.55;;;4.55;;
63259;SDS011;49390;51.380;0.098;2022-12-29T01:40:03;16.08;;;3.42;;
63259;SDS011;49390;51.380;0.098;2022-12-29T01:42:33;15.07;;;3.67;;
63259;SDS011;49390;51.380;0.098;2022-12-29T01:45:02;19.42;;;3.58;;
63259;SDS011;49390;51.380;0.098;2022-12-29T01:47:43;12.50;;;3.03;;
63259;SDS011;49390;51.380;0.098;2022-12-29T01:50:20;14.63;;;2.78;;
63259;SDS011;49390;51.380;0.098;2022-12-29T01:53:09;14.27;;;3.45;;
63259;SDS011;49390;51.380;0.098;2022-12-29T01:55:42;15.55;;;3.03;;
63259;SDS011;49390;51.380;0.098;2022-12-29T01:58:13;14.00;;;2.90;;
63259;SDS011;49390;51.380;0.098;2022-12-29T02:00:44;23.38;;;3.63;;
63259;SDS011;49390;51.380;0.098;2022-12-29T02:03:14;13.63;;;3.22;;
63259;SDS011;49390;51.380;0.098;2022-12-29T02:08:19;20.52;;;3.20;;
63259;SDS011;49390;51.380;0.098;2022-12-29T02:10:49;16.02;;;2.90;;
63259;SDS011;49390;51.380;0.098;2022-12-29T02:13:18;17.83;;;3.20;;
63259;SDS011;49390;51.380;0.098;2022-12-29T02:18:37;12.52;;;3.05;;
63259;SDS011;49390;51.380;0.098;2022-12-29T02:24:40;18.83;;;3.60;;
63259;SDS011;49390;51.380;0.098;2022-12-29T02:43:40;18.30;;;3.60;;
63259;SDS011;49390;51.380;0.098;2022-12-29T02:46:22;21.83;;;3.83;;
63259;SDS011;49390;51.380;0.098;2022-12-29T02:49:08;17.80;;;3.75;;
63259;SDS011;49390;51.380;0.098;2022-12-29T02:51:42;17.45;;;3.80;;
63259;SDS011;49390;51.380;0.098;2022-12-29T02:54:18;15.93;;;3.50;;
63259;SDS011;49390;51.380;0.098;2022-12-29T03:00:09;20.58;;;4.22;;
63259;SDS011;49390;51.380;0.098;2022-12-29T03:03:01;15.75;;;3.53;;
63259;SDS011;49390;51.380;0.098;2022-12-29T03:08:56;16.20;;;5.32;;
63259;SDS011;49390;51.380;0.098;2022-12-29T03:11:48;17.50;;;3.35;;
63259;SDS011;49390;51.380;0.098;2022-12-29T03:17:51;15.50;;;3.80;;
63259;SDS011;49390;51.380;0.098;2022-12-29T03:20:38;20.02;;;3.50;;
63259;SDS011;49390;51.380;0.098;2022-12-29T03:23:19;13.75;;;3.25;;
63259;SDS011;49390;51.380;0.098;2022-12-29T03:25:50;18.02;;;3.80;;
63259;SDS011;49390;51.380;0.098;2022-12-29T03:28:22;17.85;;;4.00;;
63259;SDS011;49390;51.380;0.098;2022-12-29T03:30:57;25.98;;;4.15;;
63259;SDS011;49390;51.380;0.098;2022-12-29T03:33:28;19.92;;;3.75;;
63259;SDS011;49390;51.380;0.098;2022-12-29T03:36:02;27.00;;;4.63;;
63259;SDS011;49390;51.380;0.098;2022-12-29T03:41:11;15.93;;;3.33;;
63259;SDS011;49390;51.380;0.098;2022-12-29T03:43:46;16.55;;;3.60;;
63259;SDS011;49390;51.380;0.098;2022-12-29T03:46:15;19.75;;;4.03;;
63259;SDS011;49390;51.380;0.098;2022-12-29T03:48:44;25.33;;;3.75;;
63259;SDS011;49390;51.380;0.098;2022-12-29T03:51:13;16.08;;;4.10;;
63259;SDS011;49390;51.380;0.098;2022-12-29T03:53:41;17.40;;;4.43;;
63259;SDS011;49390;51.380;0.098;2022-12-29T03:56:09;15.65;;;3.72;;
63259;SDS011;49390;51.380;0.098;2022-12-29T03:58:38;21.73;;;4.75;;
63259;SDS011;49390;51.380;0.098;2022-12-29T04:01:13;12.05;;;2.75;;
63259;SDS011;49390;51.380;0.098;2022-12-29T04:03:47;24.08;;;4.28;;
63259;SDS011;49390;51.380;0.098;2022-12-29T04:06:16;21.98;;;4.07;;
63259;SDS011;49390;51.380;0.098;2022-12-29T04:08:57;19.45;;;3.15;;
63259;SDS011;49390;51.380;0.098;2022-12-29T04:11:26;34.50;;;4.65;;
63259;SDS011;49390;51.380;0.098;2022-12-29T04:14:00;16.45;;;3.65;;
63259;SDS011;49390;51.380;0.098;2022-12-29T04:16:30;16.38;;;4.15;;
63259;SDS011;49390;51.380;0.098;2022-12-29T04:18:58;10.93;;;3.42;;
63259;SDS011;49390;51.380;0.098;2022-12-29T04:21:27;15.20;;;3.75;;
63259;SDS011;49390;51.380;0.098;2022-12-29T04:23:56;18.52;;;3.55;;
63259;SDS011;49390;51.380;0.098;2022-12-29T04:26:24;16.13;;;4.00;;
63259;SDS011;49390;51.380;0.098;2022-12-29T04:28:58;19.30;;;3.90;;
63259;SDS011;49390;51.380;0.098;2022-12-29T04:31:47;23.80;;;4.38;;
63259;SDS011;49390;51.380;0.098;2022-12-29T04:34:17;15.35;;;3.30;;
63259;SDS011;49390;51.380;0.098;2022-12-29T04:36:47;18.48;;;3.63;;
63259;SDS011;49390;51.380;0.098;2022-12-29T04:39:15;15.70;;;3.65;;
63259;SDS011;49390;51.380;0.098;2022-12-29T04:41:43;15.48;;;3.72;;
63259;SDS011;49390;51.380;0.098;2022-12-29T04:44:16;16.13;;;3.53;;
63259;SDS011;49390;51.380;0.098;2022-12-29T04:47:03;23.75;;;3.90;;
63259;SDS011;49390;51.380;0.098;2022-12-29T04:49:50;14.82;;;3.50;;
63259;SDS011;49390;51.380;0.098;2022-12-29T04:52:34;16.15;;;3.65;;
63259;SDS011;49390;51.380;0.098;2022-12-29T04:55:03;15.68;;;3.58;;
63259;SDS011;49390;51.380;0.098;2022-12-29T04:57:32;16.38;;;3.60;;
63259;SDS011;49390;51.380;0.098;2022-12-29T05:00:01;15.52;;;3.30;;
63259;SDS011;49390;51.380;0.098;2022-12-29T05:02:30;13.60;;;3.45;;
63259;SDS011;49390;51.380;0.098;2022-12-29T05:05:00;18.45;;;3.70;;
63259;SDS011;49390;51.380;0.098;2022-12-29T05:07:29;17.83;;;3.95;;
63259;SDS011;49390;51.380;0.098;2022-12-29T05:09:58;15.98;;;3.13;;
63259;SDS011;49390;51.380;0.098;2022-12-29T05:12:33;19.60;;;3.90;;
63259;SDS011;49390;51.380;0.098;2022-12-29T05:15:03;14.10;;;3.45;;
63259;SDS011;49390;51.380;0.098;2022-12-29T05:20:03;25.65;;;3.85;;
63259;SDS011;49390;51.380;0.098;2022-12-29T05:22:33;19.00;;;3.75;;
63259;SDS011;49390;51.380;0.098;2022-12-29T05:25:01;23.08;;;3.90;;
63259;SDS011;49390;51.380;0.098;2022-12-29T05:27:33;16.02;;;3.47;;
63259;SDS011;49390;51.380;0.098;2022-12-29T05:30:17;15.43;;;3.75;;
63259;SDS011;49390;51.380;0.098;2022-12-29T05:32:48;22.00;;;3.20;;
63259;SDS011;49390;51.380;0.098;2022-12-29T05:35:17;15.27;;;4.30;;
63259;SDS011;49390;51.380;0.098;2022-12-29T05:37:45;21.70;;;3.45;;
63259;SDS011;49390;51.380;0.098;2022-12-29T05:40:14;18.40;;;4.20;;
63259;SDS011;49390;51.380;0.098;2022-12-29T05:42:43;14.50;;;3.75;;
63259;SDS011;49390;51.380;0.098;2022-12-29T05:45:30;15.25;;;3.55;;
63259;SDS011;49390;51.380;0.098;2022-12-29T05:48:25;17.00;;;3.58;;
63259;SDS011;49390;51.380;0.098;2022-12-29T05:51:22;16.27;;;2.97;;
63259;SDS011;49390;51.380;0.098;2022-12-29T05:53:52;19.30;;;3.87;;
63259;SDS011;49390;51.380;0.098;2022-12-29T05:56:22;12.85;;;4.15;;
63259;SDS011;49390;51.380;0.098;2022-12-29T05:58:56;19.77;;;3.42;;
63259;SDS011;49390;51.380;0.098;2022-12-29T06:01:24;19.20;;;4.32;;
63259;SDS011;49390;51.380;0.098;2022-12-29T06:03:53;10.95;;;2.75;;
63259;SDS011;49390;51.380;0.098;2022-12-29T06:06:21;20.13;;;3.33;;
63259;SDS011;49390;51.380;0.098;2022-12-29T06:08:50;8.40;;;2.13;;
63259;SDS011;49390;51.380;0.098;2022-12-29T06:11:19;15.50;;;2.42;;
63259;SDS011;49390;51.380;0.098;2022-12-29T06:13:52;16.35;;;3.28;;
63259;SDS011;49390;51.380;0.098;2022-12-29T06:16:21;11.23;;;2.80;;
63259;SDS011;49390;51.380;0.098;2022-12-29T06:18:52;18.27;;;3.28;;
63259;SDS011;49390;51.380;0.098;2022-12-29T06:21:22;14.43;;;2.38;;
63259;SDS011;49390;51.380;0.098;2022-12-29T06:23:51;9.77;;;2.20;;
63259;SDS011;49390;51.380;0.098;2022-12-29T06:26:20;7.40;;;1.90;;
63259;SDS011;49390;51.380;0.098;2022-12-29T06:28:49;9.80;;;2.17;;
63259;SDS011;49390;51.380;0.098;2022-12-29T06:31:19;9.95;;;1.90;;
63259;SDS011;49390;51.380;0.098;2022-12-29T06:33:48;8.50;;;2.20;;
63259;SDS011;49390;51.380;0.098;2022-12-29T06:36:19;9.23;;;2.20;;
63259;SDS011;49390;51.380;0.098;2022-12-29T06:38:48;7.75;;;1.90;;
63259;SDS011;49390;51.380;0.098;2022-12-29T06:41:19;7.53;;;2.05;;
63259;SDS011;49390;51.380;0.098;2022-12-29T06:44:21;5.72;;;1.83;;
63259;SDS011;49390;51.380;0.098;2022-12-29T06:46:51;7.57;;;2.05;;
63259;SDS011;49390;51.380;0.098;2022-12-29T06:49:19;9.05;;;2.13;;
63259;SDS011;49390;51.380;0.098;2022-12-29T06:51:47;5.13;;;1.60;;
63259;SDS011;49390;51.380;0.098;2022-12-29T06:54:15;4.53;;;1.48;;
63259;SDS011;49390;51.380;0.098;2022-12-29T06:56:44;6.65;;;2.10;;
63259;SDS011;49390;51.380;0.098;2022-12-29T06:59:12;7.22;;;1.80;;
63259;SDS011;49390;51.380;0.098;2022-12-29T07:01:41;11.15;;;2.05;;
63259;SDS011;49390;51.380;0.098;2022-12-29T07:04:09;7.47;;;1.83;;
63259;SDS011;49390;51.380;0.098;2022-12-29T07:06:37;3.58;;;1.65;;
63259;SDS011;49390;51.380;0.098;2022-12-29T07:09:06;6.47;;;2.00;;
63259;SDS011;49390;51.380;0.098;2022-12-29T07:11:34;6.05;;;1.70;;
63259;SDS011;49390;51.380;0.098;2022-12-29T07:14:03;5.97;;;1.50;;
63259;SDS011;49390;51.380;0.098;2022-12-29T07:16:31;4.65;;;1.75;;
63259;SDS011;49390;51.380;0.098;2022-12-29T07:19:00;6.20;;;1.42;;
63259;SDS011;49390;51.380;0.098;2022-12-29T07:21:28;6.88;;;1.80;;
63259;SDS011;49390;51.380;0.098;2022-12-29T07:23:57;4.57;;;1.70;;
63259;SDS011;49390;51.380;0.098;2022-12-29T07:26:25;5.45;;;1.60;;
63259;SDS011;49390;51.380;0.098;2022-12-29T07:29:03;3.35;;;1.70;;
63259;SDS011;49390;51.380;0.098;2022-12-29T07:31:32;6.93;;;1.70;;
63259;SDS011;49390;51.380;0.098;2022-12-29T07:34:00;3.53;;;1.40;;
63259;SDS011;49390;51.380;0.098;2022-12-29T07:36:28;4.60;;;1.50;;
63259;SDS011;49390;51.380;0.098;2022-12-29T07:39:01;7.18;;;1.67;;
63259;SDS011;49390;51.380;0.098;2022-12-29T07:41:30;6.47;;;2.08;;
63259;SDS011;49390;51.380;0.098;2022-12-29T07:44:01;4.70;;;1.70;;
63259;SDS011;49390;51.380;0.098;2022-12-29T07:46:35;4.45;;;1.83;;
63259;SDS011;49390;51.380;0.098;2022-12-29T07:49:23;4.43;;;1.60;;
63259;SDS011;49390;51.380;0.098;2022-12-29T07:51:51;4.95;;;1.67;;
63259;SDS011;49390;51.380;0.098;2022-12-29T07:54:19;7.93;;;2.83;;
63259;SDS011;49390;51.380;0.098;2022-12-29T07:56:47;4.28;;;1.45;;
63259;SDS011;49390;51.380;0.098;2022-12-29T07:59:16;5.32;;;1.83;;
63259;SDS011;49390;51.380;0.098;2022-12-29T08:01:44;7.00;;;1.70;;
63259;SDS011;49390;51.380;0.098;2022-12-29T08:04:12;3.05;;;1.65;;
63259;SDS011;49390;51.380;0.098;2022-12-29T08:06:39;5.40;;;1.58;;
63259;SDS011;49390;51.380;0.098;2022-12-29T08:09:08;6.22;;;1.77;;
63259;SDS011;49390;51.380;0.098;2022-12-29T08:11:46;4.78;;;1.92;;
63259;SDS011;49390;51.380;0.098;2022-12-29T08:14:15;8.02;;;1.60;;
63259;SDS011;49390;51.380;0.098;2022-12-29T08:16:43;6.35;;;1.85;;
63259;SDS011;49390;51.380;0.098;2022-12-29T08:19:11;6.63;;;1.80;;
63259;SDS011;49390;51.380;0.098;2022-12-29T08:21:40;4.35;;;1.30;;
63259;SDS011;49390;51.380;0.098;2022-12-29T08:24:08;3.38;;;1.50;;
63259;SDS011;49390;51.380;0.098;2022-12-29T08:26:36;2.75;;;1.40;;
63259;SDS011;49390;51.380;0.098;2022-12-29T08:29:05;5.82;;;1.80;;
63259;SDS011;49390;51.380;0.098;2022-12-29T08:31:33;10.40;;;1.50;;
63259;SDS011;49390;51.380;0.098;2022-12-29T08:34:01;6.38;;;1.60;;
63259;SDS011;49390;51.380;0.098;2022-12-29T08:36:30;4.38;;;1.83;;
63259;SDS011;49390;51.380;0.098;2022-12-29T08:38:59;4.53;;;1.60;;
63259;SDS011;49390;51.380;0.098;2022-12-29T08:41:28;10.63;;;3.17;;
63259;SDS011;49390;51.380;0.098;2022-12-29T08:43:57;4.78;;;1.70;;
63259;SDS011;49390;51.380;0.098;2022-12-29T08:46:25;7.70;;;1.40;;
63259;SDS011;49390;51.380;0.098;2022-12-29T08:48:53;5.28;;;1.65;;
63259;SDS011;49390;51.380;0.098;2022-12-29T08:51:22;6.47;;;1.73;;
63259;SDS011;49390;51.380;0.098;2022-12-29T08:53:52;4.30;;;1.70;;
63259;SDS011;49390;51.380;0.098;2022-12-29T08:56:21;5.78;;;1.83;;
63259;SDS011;49390;51.380;0.098;2022-12-29T08:58:55;5.80;;;1.58;;
63259;SDS011;49390;51.380;0.098;2022-12-29T09:01:26;5.80;;;1.85;;
63259;SDS011;49390;51.380;0.098;2022-12-29T09:03:56;5.43;;;1.95;;
63259;SDS011;49390;51.380;0.098;2022-12-29T09:06:44;4.95;;;1.73;;
63259;SDS011;49390;51.380;0.098;2022-12-29T09:09:13;5.07;;;1.30;;
63259;SDS011;49390;51.380;0.098;2022-12-29T09:11:41;4.70;;;1.55;;
63259;SDS011;49390;51.380;0.098;2022-12-29T09:14:12;6.13;;;1.70;;
63259;SDS011;49390;51.380;0.098;2022-12-29T09:16:44;4.13;;;2.08;;
63259;SDS011;49390;51.380;0.098;2022-12-29T09:19:31;6.00;;;1.60;;
63259;SDS011;49390;51.380;0.098;2022-12-29T09:21:59;6.90;;;1.63;;
63259;SDS011;49390;51.380;0.098;2022-12-29T09:24:27;5.13;;;1.55;;
63259;SDS011;49390;51.380;0.098;2022-12-29T09:26:56;4.60;;;1.40;;
63259;SDS011;49390;51.380;0.098;2022-12-29T09:29:24;5.78;;;1.67;;
63259;SDS011;49390;51.380;0.098;2022-12-29T09:31:55;11.05;;;2.35;;
63259;SDS011;49390;51.380;0.098;2022-12-29T09:34:23;7.38;;;1.98;;
63259;SDS011;49390;51.380;0.098;2022-12-29T09:36:53;6.22;;;1.85;;
63259;SDS011;49390;51.380;0.098;2022-12-29T09:39:21;7.72;;;2.00;;
63259;SDS011;49390;51.380;0.098;2022-12-29T09:47:23;9.80;;;2.00;;
63259;SDS011;49390;51.380;0.098;2022-12-29T09:52:36;5.40;;;1.85;;
63259;SDS011;49390;51.380;0.098;2022-12-29T09:55:15;4.85;;;1.42;;
63259;SDS011;49390;51.380;0.098;2022-12-29T09:57:49;6.63;;;1.80;;
63259;SDS011;49390;51.380;0.098;2022-12-29T10:00:35;4.70;;;1.88;;
63259;SDS011;49390;51.380;0.098;2022-12-29T10:03:06;4.75;;;1.63;;
63259;SDS011;49390;51.380;0.098;2022-12-29T10:26:03;5.88;;;1.40;;
63259;SDS011;49390;51.380;0.098;2022-12-29T10:28:44;3.58;;;1.42;;
63259;SDS011;49390;51.380;0.098;2022-12-29T10:31:23;6.80;;;1.30;;
63259;SDS011;49390;51.380;0.098;2022-12-29T10:33:56;5.70;;;1.42;;
63259;SDS011;49390;51.380;0.098;2022-12-29T10:36:39;3.22;;;1.42;;
63259;SDS011;49390;51.380;0.098;2022-12-29T10:39:16;3.88;;;1.35;;
63259;SDS011;49390;51.380;0.098;2022-12-29T10:44:41;3.72;;;1.20;;
63259;SDS011;49390;51.380;0.098;2022-12-29T10:47:11;1.88;;;1.02;;
63259;SDS011;49390;51.380;0.098;2022-12-29T10:49:45;5.22;;;1.52;;
63259;SDS011;49390;51.380;0.098;2022-12-29T10:52:16;4.72;;;1.38;;
63259;SDS011;49390;51.380;0.098;2022-12-29T10:54:51;3.83;;;1.45;;
63259;SDS011;49390;51.380;0.098;2022-12-29T10:57:36;2.83;;;1.40;;
63259;SDS011;49390;51.380;0.098;2022-12-29T11:00:19;5.50;;;1.67;;
63259;SDS011;49390;51.380;0.098;2022-12-29T11:06:00;3.35;;;1.08;;
63259;SDS011;49390;51.380;0.098;2022-12-29T11:08:39;5.75;;;1.17;;
63259;SDS011;49390;51.380;0.098;2022-12-29T11:11:33;5.82;;;1.40;;
63259;SDS011;49390;51.380;0.098;2022-12-29T11:14:14;3.83;;;1.35;;
63259;SDS011;49390;51.380;0.098;2022-12-29T11:16:56;5.70;;;1.50;;
63259;SDS011;49390;51.380;0.098;2022-12-29T11:19:29;6.53;;;1.52;;
63259;SDS011;49390;51.380;0.098;2022-12-29T11:25:05;5.60;;;1.30;;
63259;SDS011;49390;51.380;0.098;2022-12-29T11:27:38;4.05;;;1.40;;
63259;SDS011;49390;51.380;0.098;2022-12-29T11:30:22;5.85;;;1.70;;
63259;SDS011;49390;51.380;0.098;2022-12-29T11:32:54;4.80;;;2.13;;
63259;SDS011;49390;51.380;0.098;2022-12-29T11:35:34;6.50;;;1.35;;
63259;SDS011;49390;51.380;0.098;2022-12-29T11:38:16;5.93;;;1.50;;
63259;SDS011;49390;51.380;0.098;2022-12-29T11:40:48;3.65;;;1.13;;
63259;SDS011;49390;51.380;0.098;2022-12-29T11:43:20;6.57;;;1.98;;
63259;SDS011;49390;51.380;0.098;2022-12-29T11:46:00;6.03;;;1.38;;
63259;SDS011;49390;51.380;0.098;2022-12-29T11:48:38;4.65;;;1.27;;
63259;SDS011;49390;51.380;0.098;2022-12-29T11:51:07;5.40;;;1.23;;
63259;SDS011;49390;51.380;0.098;2022-12-29T11:53:38;9.60;;;1.70;;
63259;SDS011;49390;51.380;0.098;2022-12-29T11:56:11;7.30;;;1.70;;
63259;SDS011;49390;51.380;0.098;2022-12-29T11:58:45;5.13;;;1.65;;
63259;SDS011;49390;51.380;0.098;2022-12-29T12:01:17;3.65;;;1.75;;
63259;SDS011;49390;51.380;0.098;2022-12-29T12:04:36;7.15;;;1.85;;
63259;SDS011;49390;51.380;0.098;2022-12-29T12:07:15;8.55;;;1.85;;
63259;SDS011;49390;51.380;0.098;2022-12-29T12:09:51;8.45;;;2.63;;
63259;SDS011;49390;51.380;0.098;2022-12-29T12:12:51;6.70;;;2.00;;
63259;SDS011;49390;51.380;0.098;2022-12-29T12:15:22;11.05;;;2.50;;
63259;SDS011;49390;51.380;0.098;2022-12-29T12:21:29;10.80;;;2.33;;
63259;SDS011;49390;51.380;0.098;2022-12-29T12:33:03;9.68;;;1.90;;
63259;SDS011;49390;51.380;0.098;2022-12-29T12:41:04;8.65;;;2.45;;
63259;SDS011;49390;51.380;0.098;2022-12-29T12:43:51;11.70;;;2.30;;
63259;SDS011;49390;51.380;0.098;2022-12-29T12:49:32;10.80;;;2.38;;
63259;SDS011;49390;51.380;0.098;2022-12-29T12:52:44;7.18;;;2.17;;
63259;SDS011;49390;51.380;0.098;2022-12-29T12:55:36;11.20;;;2.60;;
63259;SDS011;49390;51.380;0.098;2022-12-29T13:06:49;10.02;;;2.25;;
63259;SDS011;49390;51.380;0.098;2022-12-29T13:12:44;9.13;;;2.08;;
63259;SDS011;49390;51.380;0.098;2022-12-29T13:20:55;13.40;;;2.97;;
63259;SDS011;49390;51.380;0.098;2022-12-29T13:23:33;12.82;;;2.55;;
63259;SDS011;49390;51.380;0.098;2022-12-29T13:26:30;9.60;;;2.30;;
63259;SDS011;49390;51.380;0.098;2022-12-29T13:36:49;12.20;;;2.63;;
63259;SDS011;49390;51.380;0.098;2022-12-29T13:39:26;8.45;;;2.15;;
63259;SDS011;49390;51.380;0.098;2022-12-29T13:42:00;9.35;;;2.30;;
63259;SDS011;49390;51.380;0.098;2022-12-29T13:44:31;5.18;;;1.98;;
63259;SDS011;49390;51.380;0.098;2022-12-29T13:47:06;11.30;;;2.35;;
63259;SDS011;49390;51.380;0.098;2022-12-29T13:49:47;9.57;;;2.60;;
63259;SDS011;49390;51.380;0.098;2022-12-29T14:00:26;5.97;;;2.20;;
63259;SDS011;49390;51.380;0.098;2022-12-29T14:06:15;10.73;;;2.50;;
63259;SDS011;49390;51.380;0.098;2022-12-29T14:08:44;10.45;;;2.47;;
63259;SDS011;49390;51.380;0.098;2022-12-29T14:11:14;7.78;;;1.77;;
63259;SDS011;49390;51.380;0.098;2022-12-29T14:13:46;6.70;;;1.88;;
63259;SDS011;49390;51.380;0.098;2022-12-29T14:16:24;11.13;;;2.40;;
63259;SDS011;49390;51.380;0.098;2022-12-29T14:18:53;10.73;;;2.58;;
63259;SDS011;49390;51.380;0.098;2022-12-29T14:21:25;13.40;;;2.67;;
63259;SDS011;49390;51.380;0.098;2022-12-29T14:26:56;9.73;;;1.90;;
63259;SDS011;49390;51.380;0.098;2022-12-29T14:31:52;10.27;;;2.10;;
63259;SDS011;49390;51.380;0.098;2022-12-29T14:39:34;11.27;;;2.25;;
63259;SDS011;49390;51.380;0.098;2022-12-29T14:44:55;10.07;;;2.30;;
63259;SDS011;49390;51.380;0.098;2022-12-29T14:47:39;7.45;;;2.00;;
63259;SDS011;49390;51.380;0.098;2022-12-29T14:52:56;8.65;;;1.95;;
63259;SDS011;49390;51.380;0.098;2022-12-29T14:58:18;7.60;;;2.30;;
63259;SDS011;49390;51.380;0.098;2022-12-29T15:01:00;9.15;;;2.55;;
63259;SDS011;49390;51.380;0.098;2022-12-29T15:03:31;11.98;;;2.88;;
63259;SDS011;49390;51.380;0.098;2022-12-29T15:06:15;10.65;;;2.60;;
63259;SDS011;49390;51.380;0.098;2022-12-29T15:08:59;5.95;;;2.05;;
63259;SDS011;49390;51.380;0.098;2022-12-29T15:11:41;6.78;;;2.53;;
63259;SDS011;49390;51.380;0.098;2022-12-29T15:16:56;8.23;;;2.58;;
63259;SDS011;49390;51.380;0.098;2022-12-29T15:19:28;8.38;;;2.28;;
63259;SDS011;49390;51.380;0.098;2022-12-29T15:21:59;12.15;;;2.83;;
63259;SDS011;49390;51.380;0.098;2022-12-29T15:24:28;8.25;;;2.08;;
63259;SDS011;49390;51.380;0.098;2022-12-29T15:26:57;9.45;;;2.50;;
63259;SDS011;49390;51.380;0.098;2022-12-29T15:32:23;5.53;;;2.13;;
63259;SDS011;49390;51.380;0.098;2022-12-29T15:34:54;6.68;;;1.98;;
63259;SDS011;49390;51.380;0.098;2022-12-29T15:37:25;10.40;;;2.75;;
63259;SDS011;49390;51.380;0.098;2022-12-29T15:39:55;8.40;;;2.42;;
63259;SDS011;49390;51.380;0.098;2022-12-29T15:45:13;5.72;;;2.30;;
63259;SDS011;49390;51.380;0.098;2022-12-29T15:47:42;10.32;;;2.95;;
63259;SDS011;49390;51.380;0.098;2022-12-29T15:50:30;6.15;;;2.30;;
63259;SDS011;49390;51.380;0.098;2022-12-29T15:53:01;7.82;;;2.28;;
63259;SDS011;49390;51.380;0.098;2022-12-29T15:55:34;9.07;;;2.25;;
63259;SDS011;49390;51.380;0.098;2022-12-29T15:58:05;8.93;;;2.70;;
63259;SDS011;49390;51.380;0.098;2022-12-29T16:00:53;11.57;;;2.75;;
63259;SDS011;49390;51.380;0.098;2022-12-29T16:03:24;11.80;;;2.50;;
63259;SDS011;49390;51.380;0.098;2022-12-29T16:05:56;9.97;;;2.30;;
63259;SDS011;49390;51.380;0.098;2022-12-29T16:08:36;11.25;;;2.60;;
63259;SDS011;49390;51.380;0.098;2022-12-29T16:11:16;8.25;;;3.58;;
63259;SDS011;49390;51.380;0.098;2022-12-29T16:13:51;10.07;;;2.50;;
63259;SDS011;49390;51.380;0.098;2022-12-29T16:16:23;10.70;;;2.92;;
63259;SDS011;49390;51.380;0.098;2022-12-29T16:19:06;9.68;;;2.63;;
63259;SDS011;49390;51.380;0.098;2022-12-29T16:21:48;9.35;;;2.42;;
63259;SDS011;49390;51.380;0.098;2022-12-29T16:24:18;11.13;;;3.25;;
63259;SDS011;49390;51.380;0.098;2022-12-29T16:27:36;8.93;;;2.40;;
63259;SDS011;49390;51.380;0.098;2022-12-29T16:29:51;8.77;;;2.58;;
63259;SDS011;49390;51.380;0.098;2022-12-29T16:32:28;9.63;;;2.42;;
63259;SDS011;49390;51.380;0.098;2022-12-29T16:37:46;10.45;;;2.65;;
63259;SDS011;49390;51.380;0.098;2022-12-29T16:42:47;11.73;;;2.85;;
63259;SDS011;49390;51.380;0.098;2022-12-29T16:50:34;7.72;;;2.25;;
63259;SDS011;49390;51.380;0.098;2022-12-29T16:53:05;12.15;;;2.63;;
63259;SDS011;49390;51.380;0.098;2022-12-29T16:55:46;9.02;;;2.25;;
63259;SDS011;49390;51.380;0.098;2022-12-29T16:58:17;6.55;;;2.20;;
63259;SDS011;49390;51.380;0.098;2022-12-29T17:00:49;9.45;;;2.42;;
63259;SDS011;49390;51.380;0.098;2022-12-29T17:03:23;11.77;;;2.70;;
63259;SDS011;49390;51.380;0.098;2022-12-29T17:06:01;10.77;;;2.67;;
63259;SDS011;49390;51.380;0.098;2022-12-29T17:08:38;9.73;;;3.25;;
63259;SDS011;49390;51.380;0.098;2022-12-29T17:11:15;10.02;;;3.17;;
63259;SDS011;49390;51.380;0.098;2022-12-29T17:14:04;8.65;;;2.20;;
63259;SDS011;49390;51.380;0.098;2022-12-29T17:16:33;12.75;;;2.40;;
63259;SDS011;49390;51.380;0.098;2022-12-29T17:19:01;12.75;;;2.50;;
63259;SDS011;49390;51.380;0.098;2022-12-29T17:21:30;11.82;;;2.45;;
63259;SDS011;49390;51.380;0.098;2022-12-29T17:23:58;10.30;;;2.70;;
63259;SDS011;49390;51.380;0.098;2022-12-29T17:26:28;12.30;;;2.40;;
63259;SDS011;49390;51.380;0.098;2022-12-29T17:28:57;9.65;;;2.42;;
63259;SDS011;49390;51.380;0.098;2022-12-29T17:31:25;9.27;;;2.53;;
63259;SDS011;49390;51.380;0.098;2022-12-29T17:33:54;11.98;;;2.58;;
63259;SDS011;49390;51.380;0.098;2022-12-29T17:36:23;8.63;;;2.50;;
63259;SDS011;49390;51.380;0.098;2022-12-29T17:38:52;7.75;;;2.20;;
63259;SDS011;49390;51.380;0.098;2022-12-29T17:41:20;5.68;;;2.45;;
63259;SDS011;49390;51.380;0.098;2022-12-29T17:43:48;7.57;;;2.47;;
63259;SDS011;49390;51.380;0.098;2022-12-29T17:46:16;7.47;;;2.58;;
63259;SDS011;49390;51.380;0.098;2022-12-29T17:48:44;13.55;;;2.80;;
63259;SDS011;49390;51.380;0.098;2022-12-29T17:51:20;6.43;;;2.30;;
63259;SDS011;49390;51.380;0.098;2022-12-29T17:53:51;9.95;;;2.50;;
63259;SDS011;49390;51.380;0.098;2022-12-29T17:56:19;7.80;;;2.28;;
63259;SDS011;49390;51.380;0.098;2022-12-29T17:58:48;8.15;;;2.88;;
63259;SDS011;49390;51.380;0.098;2022-12-29T18:01:17;8.25;;;2.20;;
63259;SDS011;49390;51.380;0.098;2022-12-29T18:03:49;10.10;;;2.78;;
63259;SDS011;49390;51.380;0.098;2022-12-29T18:06:18;12.23;;;2.47;;
63259;SDS011;49390;51.380;0.098;2022-12-29T18:08:46;8.60;;;2.92;;
63259;SDS011;49390;51.380;0.098;2022-12-29T18:11:22;8.68;;;2.30;;
63259;SDS011;49390;51.380;0.098;2022-12-29T18:16:16;9.45;;;2.75;;